Marlborough, Connecticut
Current Conditions -  °F | °C
As of 4:53 PM on Saturday 20 Dec 2014 (Local Time) from KHFD Reporting Station
Overcast Overcast  
Wind Chill: 31°   Ceiling: 3600
Heat Index: 31°   Visibility: 10mi
Dew Point: 20°   Wind: 3mph
Humidity: 64%   Direction: NA
Pressure: 30.27"   Gusts: NA
Location:  41.63°N, 72.46°W
Report Text: KHFD 202153Z VRB03KT 10SM OVC036 M01/M07 A3027 RMK AO2 SLP251 T10061067
Loading
Personal Weather Stations






























Interactive Weather Map New forecast layout! Learn more

10-Day Weather Forecast

Advertisements
Track Severe Weather on mobile